Friday, December 14, 2018, 6:57 PM EST
Back to Local

KMGJ, Montgomery Orange Co Airport

Location: Montgomery, NY, United States Lat: 41.517
Local Time: 6:57 PM EST (23:57 GMT) Lon: -74.267
Time Zone: US/Eastern Elev: 354 ft

Show me the last for .
Show Coded

Time T Td Feel RH Dir Speed Gust Alt SLP Vis Weather Sky Remarks
2018-12-14 17:54 38 36 - 92 - Calm - 30.32 30.33 10 OVC013 None
2018-12-14 17:05 39 36 - 88 - Calm - 30.34 - 10 OVC014 None
2018-12-14 16:54 39 36 - 88 - Calm - 30.34 30.35 10 OVC015 None
2018-12-14 15:54 41 36 - 82 - Calm - 30.33 30.34 10 OVC015 None
2018-12-14 14:54 41 36 - 82 - Calm - 30.33 30.34 10 OVC016 None
2018-12-14 13:54 41 36 39 82 330° 3 - 30.35 30.36 10 OVC018 None
2018-12-14 12:54 40 36 - 85 - Calm - 30.37 30.37 10 OVC019 6-hr Min Temp (1pm): 33.1°F
6-hr Max Temp (1pm): 39.9°F
2018-12-14 11:54 39 35 - 85 - Calm - 30.38 30.40 8 OVC022 None
2018-12-14 11:05 37 34 - 88 - Calm - 30.43 - 8 BKN026 OVC031 None
2018-12-14 10:54 38 34 - 85 - Calm - 30.43 30.44 7 OVC030 None
2018-12-14 10:44 37 34 - 88 - Calm - 30.44 - 6 BR FEW019 OVC030 None
2018-12-14 09:54 35 33 - 92 - Calm - 30.47 30.48 5 BR BKN021 OVC030 None
2018-12-14 09:25 34 31 - 88 - Calm - 30.48 - 5 BR SCT017 OVC032 None
2018-12-14 08:54 34 32 - 92 - Calm - 30.47 30.48 4 BR OVC017 None
2018-12-14 07:54 33 31 - 91 - Calm - 30.45 30.47 3 BR OVC015 None
2018-12-14 06:54 33 31 30 91 10° 3 - 30.45 30.46 5 BR BKN015 OVC027 24-hr Precip Total (7am): 0.01"
6-hr Min Temp (7am): 30.9°F
6-hr Max Temp (7am): 33.1°F
2018-12-14 06:45 33 31 - 91 - Calm - 30.45 - 5 BR BKN015 OVC027 None
2018-12-14 05:54 32 30 29 92 10° 3 - 30.44 30.45 5 BR OVC012 None
2018-12-14 04:54 32 31 - 95 - Calm - 30.45 30.46 4 BR OVC010 None
2018-12-14 04:38 32 30 - 92 - Calm - 30.45 - 4 BR OVC010 None
2018-12-14 03:54 32 30 - 92 - Calm - 30.46 30.47 4 BR OVC007 None
2018-12-14 02:54 32 30 - 92 - Calm - 30.47 30.48 5 BR OVC007 None
2018-12-14 01:54 31 29 25 92 30° 6 - 30.47 30.49 5 BR OVC007 None
2018-12-14 00:54 31 29 25 92 30° 6 - 30.47 30.49 6 BR OVC008 6-hr Precip Total (1am): 0.00"
6-hr Min Temp (1am): 28.0°F
6-hr Max Temp (1am): 30.9°F
2018-12-13 23:54 30 27 24 88 20° 6 - 30.49 30.50 5 BR OVC007 24-hr Min Temp (12am): 24.1°F
24-hr Max Temp (12am): 30.0°F
2018-12-13 22:54 30 27 25 88 360° 5 - 30.49 30.50 8 OVC007 None
2018-12-13 21:54 30 27 23 88 40° 7 - 30.48 30.49 8 OVC008 6-hr Precip Total (10pm): 0.00"
2018-12-13 21:15 30 27 26 88 20° 3 - 30.48 - 8 OVC009 None
2018-12-13 20:54 30 27 - 88 - Calm - 30.47 30.49 8 OVC010 1-hr Precip Total: Trace
2018-12-13 19:54 29 26 25 88 20° 3 - 30.47 30.48 6 -SN BR OVC011 1-hr Precip Total: Trace

Support USWX by starting your Amazon purchase here.